Time;durP1;ratioP1;P1;durP2;ratioP2;P2;SDS_P1;SDS_P2;PMS_P1;PMS_P2;Temp;Humidity;BMP_temperature;BMP_pressure;BME280_temperature;BME280_humidity;BME280_pressure;Samples;Min_cycle;Max_cycle;Signal;HPM_P1;HPM_P2
2022/06/23 00:01:27;;;;;;;12.10;4.72;;;19.90;99.90;;;;;;4995160;28;20150;-74
2022/06/23 00:03:55;;;;;;;12.73;4.38;;;19.80;99.90;;;;;;4990554;28;20038;-74
2022/06/23 00:06:40;;;;;;;10.18;4.68;;;19.80;99.90;;;;;;4978389;28;20054;-74
2022/06/23 00:09:37;;;;;;;12.40;4.18;;;19.80;99.90;;;;;;4974812;28;20026;-75
2022/06/23 00:12:34;;;;;;;16.30;4.97;;;19.80;99.90;;;;;;4982565;28;20061;-75
2022/06/23 00:15:02;;;;;;;10.75;4.20;;;19.70;99.90;;;;;;4982387;28;20503;-74
2022/06/23 00:17:54;;;;;;;12.80;4.30;;;19.70;99.90;;;;;;4989504;28;20114;-75
2022/06/23 00:20:30;;;;;;;10.68;4.65;;;19.70;99.90;;;;;;4987467;28;20125;-74
2022/06/23 00:23:09;;;;;;;7.53;3.72;;;19.60;99.90;;;;;;4994558;28;20088;-74
2022/06/23 00:25:44;;;;;;;12.25;4.47;;;19.60;99.90;;;;;;4988381;28;20034;-75
2022/06/23 00:28:23;;;;;;;11.98;4.13;;;19.50;99.90;;;;;;4989880;28;20022;-75
2022/06/23 00:31:05;;;;;;;12.52;3.70;;;19.50;99.90;;;;;;4972029;28;20109;-74
2022/06/23 00:33:39;;;;;;;11.45;4.25;;;19.50;99.90;;;;;;4964541;28;20121;-75
2022/06/23 00:36:17;;;;;;;15.77;4.78;;;19.40;99.90;;;;;;4991572;28;20030;-75
2022/06/23 00:38:43;;;;;;;14.57;4.65;;;19.30;99.90;;;;;;4988250;28;20076;-75
2022/06/23 00:41:17;;;;;;;12.40;3.58;;;19.30;99.90;;;;;;4972714;28;20098;-75
2022/06/23 00:43:47;;;;;;;;;;;19.20;99.90;;;;;;4986891;28;20034;-75
2022/06/23 00:46:28;;;;;;;12.95;4.13;;;19.20;99.90;;;;;;4989160;28;19921;-75
2022/06/23 00:49:08;;;;;;;8.10;4.05;;;19.20;99.90;;;;;;4984774;28;20393;-75
2022/06/23 00:51:47;;;;;;;13.10;4.55;;;19.10;99.90;;;;;;4990727;28;20577;-75
2022/06/23 00:54:48;;;;;;;10.10;4.15;;;19.10;99.90;;;;;;4976961;28;20033;-75
2022/06/23 00:57:19;;;;;;;9.95;4.10;;;19.20;99.90;;;;;;4951382;28;20487;-75
2022/06/23 00:59:53;;;;;;;13.43;4.38;;;19.10;99.90;;;;;;4988370;28;20030;-75
2022/06/23 01:02:27;;;;;;;9.93;4.32;;;19.10;99.90;;;;;;4972904;28;20384;-74
2022/06/23 01:05:01;;;;;;;8.18;4.03;;;19.10;99.90;;;;;;4990042;28;20468;-75
2022/06/23 01:07:46;;;;;;;15.00;4.43;;;19.10;99.90;;;;;;4988926;28;20030;-75
2022/06/23 01:10:26;;;;;;;14.93;4.82;;;19.10;99.90;;;;;;4991307;28;20040;-74
2022/06/23 01:12:52;;;;;;;15.30;3.83;;;19.00;99.90;;;;;;4990140;28;20022;-74
2022/06/23 01:15:41;;;;;;;8.75;4.20;;;19.00;99.90;;;;;;4972786;28;20166;-74
2022/06/23 01:18:57;;;;;;;11.15;4.15;;;18.90;99.90;;;;;;4995575;28;20026;-75
2022/06/23 01:21:31;;;;;;;16.85;4.47;;;19.00;99.90;;;;;;4954943;28;20418;-75
2022/06/23 01:24:18;;;;;;;14.15;4.63;;;18.90;99.90;;;;;;4972947;28;20034;-74
2022/06/23 01:26:46;;;;;;;9.77;5.13;;;18.90;99.90;;;;;;4987524;28;20030;-74
2022/06/23 01:29:15;;;;;;;15.18;5.32;;;18.90;99.90;;;;;;4997138;28;20040;-74
2022/06/23 01:31:53;;;;;;;16.67;4.75;;;18.90;99.90;;;;;;4990119;28;20105;-74
2022/06/23 01:34:42;;;;;;;10.25;3.97;;;18.90;99.90;;;;;;5002188;28;20379;-74
2022/06/23 01:37:34;;;;;;;12.27;4.90;;;18.90;99.90;;;;;;4989720;28;20109;-74
2022/06/23 01:40:03;;;;;;;8.48;4.53;;;18.80;99.90;;;;;;4996993;28;20386;-74
2022/06/23 01:42:39;;;;;;;11.80;4.18;;;18.80;99.90;;;;;;4991433;28;20037;-74
2022/06/23 01:45:16;;;;;;;14.13;4.22;;;18.70;99.90;;;;;;4990710;28;20495;-74
2022/06/23 01:47:55;;;;;;;14.85;5.25;;;18.70;99.90;;;;;;4989353;28;20046;-74
2022/06/23 01:50:41;;;;;;;13.23;4.68;;;18.70;99.90;;;;;;4987244;28;20353;-74
2022/06/23 01:53:27;;;;;;;14.30;5.13;;;18.70;99.90;;;;;;4993209;28;20050;-75
2022/06/23 01:56:12;;;;;;;13.63;4.35;;;18.70;99.90;;;;;;4973837;28;20046;-74
2022/06/23 01:58:40;;;;;;;13.15;4.40;;;18.60;99.90;;;;;;4990079;28;20028;-74
2022/06/23 02:01:14;;;;;;;15.25;4.30;;;18.60;99.90;;;;;;4979330;28;20061;-74
2022/06/23 02:03:43;;;;;;;7.70;4.20;;;18.60;99.90;;;;;;4989944;28;20030;-74
2022/06/23 02:06:26;;;;;;;8.60;3.85;;;18.60;99.90;;;;;;4974102;28;20059;-74
2022/06/23 02:09:09;;;;;;;11.45;4.57;;;18.60;99.90;;;;;;4990033;28;20494;-74
2022/06/23 02:11:50;;;;;;;12.80;4.67;;;18.50;99.90;;;;;;4988822;28;20081;-75
2022/06/23 02:14:40;;;;;;;11.27;5.05;;;18.50;99.90;;;;;;4971937;28;20116;-74
2022/06/23 02:17:33;;;;;;;13.00;4.63;;;18.50;99.90;;;;;;4992603;28;20034;-74
2022/06/23 02:20:23;;;;;;;13.07;4.60;;;18.40;99.90;;;;;;4985226;28;20035;-75
2022/06/23 02:23:21;;;;;;;11.30;4.63;;;18.50;99.90;;;;;;4988731;28;20092;-75
2022/06/23 02:25:54;;;;;;;11.30;4.40;;;18.50;99.90;;;;;;4988780;28;20475;-75
2022/06/23 02:28:37;;;;;;;12.05;4.15;;;18.40;99.90;;;;;;4985723;28;20026;-75
2022/06/23 02:31:12;;;;;;;12.55;4.25;;;18.40;99.90;;;;;;4987446;28;20022;-75
2022/06/23 02:34:04;;;;;;;11.07;4.68;;;18.40;99.90;;;;;;4972498;28;20057;-74
2022/06/23 02:36:53;;;;;;;9.23;3.45;;;18.40;99.90;;;;;;4985540;28;20018;-74
2022/06/23 02:39:45;;;;;;;9.75;4.03;;;18.40;99.90;;;;;;4972336;28;20033;-74
2022/06/23 02:42:36;;;;;;;14.30;4.53;;;18.40;99.90;;;;;;4973659;28;20039;-74
2022/06/23 02:45:07;;;;;;;8.85;4.22;;;18.40;99.90;;;;;;4989241;28;20019;-74
2022/06/23 02:47:58;;;;;;;21.58;4.93;;;18.40;99.90;;;;;;4989872;28;20030;-74
2022/06/23 02:50:45;;;;;;;9.32;3.75;;;18.30;99.90;;;;;;4991396;28;20022;-74
2022/06/23 02:53:19;;;;;;;8.80;3.88;;;18.40;99.90;;;;;;4988566;28;20018;-74
2022/06/23 02:56:03;;;;;;;7.88;3.65;;;18.40;99.90;;;;;;4994402;28;20030;-75
2022/06/23 02:58:48;;;;;;;6.93;4.43;;;18.40;99.90;;;;;;4987422;28;20553;-75
2022/06/23 03:01:37;;;;;;;10.70;4.35;;;18.40;99.90;;;;;;4988322;28;20053;-75
2022/06/23 03:04:29;;;;;;;13.02;3.80;;;18.40;99.90;;;;;;4990587;28;20050;-75
2022/06/23 03:07:03;;;;;;;9.93;4.03;;;18.40;99.90;;;;;;4984266;28;20027;-75
2022/06/23 03:09:36;;;;;;;9.63;3.53;;;18.40;99.90;;;;;;4988641;28;20033;-75
2022/06/23 03:12:16;;;;;;;11.90;4.10;;;18.30;99.90;;;;;;4986386;28;20033;-75
2022/06/23 03:14:42;;;;;;;13.02;4.45;;;18.30;99.90;;;;;;4983852;28;20027;-75
2022/06/23 03:17:33;;;;;;;8.55;3.72;;;18.30;99.90;;;;;;4991276;28;20037;-75
2022/06/23 03:20:06;;;;;;;12.50;3.92;;;18.30;99.90;;;;;;4987535;28;20037;-75
2022/06/23 03:22:43;;;;;;;6.20;3.38;;;18.30;99.90;;;;;;4984427;28;20117;-74
2022/06/23 03:25:20;;;;;;;8.10;3.70;;;18.30;99.90;;;;;;5003268;28;20035;-74
2022/06/23 03:27:55;;;;;;;8.45;2.85;;;18.30;99.90;;;;;;4970022;28;20022;-74
2022/06/23 03:30:28;;;;;;;8.77;3.55;;;18.30;99.90;;;;;;4972834;28;20035;-75
2022/06/23 03:33:20;;;;;;;8.00;4.00;;;18.30;99.90;;;;;;4965281;28;20026;-75
2022/06/23 03:35:54;;;;;;;8.02;3.80;;;18.40;99.90;;;;;;4984925;28;20436;-74
2022/06/23 03:41:36;;;;;;;10.93;3.55;;;18.30;99.90;;;;;;4988885;28;20030;-75
2022/06/23 03:44:21;;;;;;;7.70;3.22;;;18.40;99.90;;;;;;4973362;28;20045;-74
2022/06/23 03:47:12;;;;;;;7.95;3.10;;;18.40;99.90;;;;;;4977243;28;20145;-75
2022/06/23 03:49:46;;;;;;;9.85;4.05;;;18.40;99.90;;;;;;4990725;28;20034;-75
2022/06/23 03:52:40;;;;;;;9.55;3.28;;;18.40;99.90;;;;;;4968517;28;20031;-75
2022/06/23 03:55:06;;;;;;;5.75;2.90;;;18.40;99.90;;;;;;4972813;28;20146;-75
2022/06/23 03:57:38;;;;;;;9.23;3.00;;;18.40;99.90;;;;;;4990559;28;20455;-75
2022/06/23 04:00:04;;;;;;;8.27;3.03;;;18.30;99.90;;;;;;4971745;28;20027;-75
2022/06/23 04:02:38;;;;;;;10.35;3.53;;;18.40;99.90;;;;;;4990934;28;20096;-76
2022/06/23 04:05:04;;;;;;;11.57;3.70;;;18.40;99.90;;;;;;4987050;28;20452;-74
2022/06/23 04:07:30;;;;;;;8.60;3.30;;;18.40;99.90;;;;;;4990620;28;20062;-75
2022/06/23 04:10:21;;;;;;;7.88;3.30;;;18.40;99.90;;;;;;4988805;28;21261;-75
2022/06/23 04:12:51;;;;;;;7.25;3.00;;;18.40;99.90;;;;;;4988739;28;20065;-74
2022/06/23 04:15:27;;;;;;;6.82;3.22;;;18.40;99.90;;;;;;4987098;28;20065;-75
2022/06/23 04:18:04;;;;;;;8.05;3.08;;;18.50;99.90;;;;;;4991703;28;20100;-74
2022/06/23 04:20:39;;;;;;;8.50;3.00;;;18.50;99.90;;;;;;4971649;28;20080;-74
2022/06/23 04:23:13;;;;;;;9.68;4.10;;;18.50;99.90;;;;;;4987064;28;20034;-74
2022/06/23 04:25:50;;;;;;;9.68;3.67;;;18.50;99.90;;;;;;4988604;28;20031;-74
2022/06/23 04:28:23;;;;;;;8.13;2.83;;;18.50;99.90;;;;;;4986058;28;20506;-74
2022/06/23 04:30:50;;;;;;;8.80;3.97;;;18.50;99.90;;;;;;4988975;28;20018;-74
2022/06/23 04:33:21;;;;;;;7.93;3.55;;;18.50;99.90;;;;;;4987909;28;20037;-71
2022/06/23 04:35:56;;;;;;;10.95;3.78;;;18.50;99.90;;;;;;4987563;28;20398;-71
2022/06/23 04:38:59;;;;;;;8.68;3.08;;;18.50;99.90;;;;;;4986252;28;20060;-71
2022/06/23 04:41:42;;;;;;;6.70;2.88;;;18.50;99.90;;;;;;4989357;28;20037;-71
2022/06/23 04:44:28;;;;;;;13.00;3.35;;;18.60;99.90;;;;;;4986086;28;20498;-72
2022/06/23 04:47:23;;;;;;;5.10;2.75;;;18.70;99.90;;;;;;4976635;28;20165;-72
2022/06/23 04:49:56;;;;;;;7.38;3.50;;;18.90;99.90;;;;;;4991791;28;20153;-72
2022/06/23 04:52:33;;;;;;;5.80;2.88;;;19.00;99.90;;;;;;4970464;28;20828;-72
2022/06/23 04:55:05;;;;;;;7.47;2.85;;;19.20;99.90;;;;;;4984618;28;20398;-71
2022/06/23 04:57:53;;;;;;;8.90;3.00;;;19.40;99.90;;;;;;4989381;28;20034;-72
2022/06/23 05:00:52;;;;;;;7.78;3.30;;;19.60;99.90;;;;;;4987963;28;20109;-72
2022/06/23 05:03:26;;;;;;;7.18;3.03;;;19.90;99.90;;;;;;4948852;28;20451;-72
2022/06/23 05:06:29;;;;;;;7.70;3.33;;;20.10;99.90;;;;;;4989114;28;20491;-72
2022/06/23 05:09:00;;;;;;;7.97;3.42;;;20.30;99.90;;;;;;4992849;28;20045;-72
2022/06/23 05:11:39;;;;;;;8.00;2.80;;;20.40;99.90;;;;;;4989253;28;20088;-72
2022/06/23 05:14:20;;;;;;;8.43;3.42;;;20.50;99.90;;;;;;4988424;28;20034;-72
2022/06/23 05:16:50;;;;;;;5.15;2.58;;;20.60;99.90;;;;;;4979476;28;20034;-71
2022/06/23 05:19:26;;;;;;;6.10;3.30;;;20.80;99.90;;;;;;4992183;28;20023;-71
2022/06/23 05:21:59;;;;;;;12.90;3.42;;;20.90;99.90;;;;;;4992896;28;20026;-77
2022/06/23 05:24:36;;;;;;;7.13;2.67;;;21.00;99.90;;;;;;4991600;28;20037;-75
2022/06/23 05:27:07;;;;;;;7.55;2.90;;;21.10;99.90;;;;;;4973548;28;20042;-76
2022/06/23 05:29:43;;;;;;;5.38;2.90;;;21.30;99.90;;;;;;4988057;28;20018;-76
2022/06/23 05:32:30;;;;;;;6.57;2.38;;;21.40;99.90;;;;;;4987063;28;20122;-77
2022/06/23 05:35:04;;;;;;;5.47;2.03;;;21.40;99.90;;;;;;4989487;28;20035;-77
2022/06/23 05:37:41;;;;;;;6.97;2.83;;;21.40;99.90;;;;;;4994763;28;20038;-77
2022/06/23 05:40:19;;;;;;;7.03;2.33;;;21.60;99.90;;;;;;4989358;28;20041;-73
2022/06/23 05:42:49;;;;;;;6.60;2.58;;;21.70;99.90;;;;;;4991645;28;20031;-76
2022/06/23 05:45:21;;;;;;;10.20;2.67;;;21.80;99.90;;;;;;4981323;28;20740;-72
2022/06/23 05:47:47;;;;;;;5.47;2.20;;;21.80;99.90;;;;;;4986916;28;20046;-72
2022/06/23 05:50:36;;;;;;;3.83;1.85;;;21.80;99.90;;;;;;4987174;28;20782;-72
2022/06/23 05:53:11;;;;;;;5.80;2.65;;;22.00;99.90;;;;;;4990203;28;20117;-72
2022/06/23 05:55:56;;;;;;;7.70;2.45;;;22.20;99.90;;;;;;4987248;28;20490;-72
2022/06/23 05:58:46;;;;;;;6.93;2.70;;;22.40;99.90;;;;;;4989485;28;20438;-72
2022/06/23 06:01:27;;;;;;;5.80;2.08;;;22.50;99.90;;;;;;4966826;28;20064;-72
2022/06/23 06:04:10;;;;;;;8.55;2.08;;;22.70;99.90;;;;;;4986870;28;20022;-72
2022/06/23 06:06:40;;;;;;;5.20;1.92;;;22.70;99.90;;;;;;4985551;28;20030;-72
2022/06/23 06:11:57;;;;;;;5.53;2.60;;;22.90;99.90;;;;;;4989391;28;20533;-72
2022/06/23 06:14:28;;;;;;;7.78;2.95;;;23.10;99.90;;;;;;4984217;28;20053;-72
2022/06/23 06:16:57;;;;;;;6.93;2.22;;;23.10;99.90;;;;;;4976330;28;20062;-72
2022/06/23 06:19:25;;;;;;;4.82;2.42;;;23.10;99.90;;;;;;4983709;28;20111;-70
2022/06/23 06:21:57;;;;;;;7.80;2.50;;;23.10;99.90;;;;;;4984248;28;20026;-71
2022/06/23 06:24:29;;;;;;;4.78;2.63;;;23.10;99.90;;;;;;4986783;28;20026;-71
2022/06/23 06:26:56;;;;;;;7.18;2.47;;;23.20;99.90;;;;;;4979181;28;20513;-72
2022/06/23 06:29:29;;;;;;;4.57;2.45;;;23.30;99.90;;;;;;4987553;28;20077;-72
2022/06/23 06:32:18;;;;;;;5.97;2.58;;;23.30;99.90;;;;;;4984265;28;20205;-72
2022/06/23 06:34:52;;;;;;;9.18;2.20;;;23.40;99.90;;;;;;4989740;28;20069;-71
2022/06/23 06:37:19;;;;;;;4.10;2.08;;;23.40;99.90;;;;;;4986084;28;20031;-72
2022/06/23 06:39:55;;;;;;;3.45;2.15;;;23.50;99.90;;;;;;4981221;28;20030;-70
2022/06/23 06:42:26;;;;;;;5.18;2.65;;;23.60;99.90;;;;;;4980208;28;20045;-72
2022/06/23 06:44:55;;;;;;;5.90;2.33;;;23.60;99.90;;;;;;4989351;28;20046;-72
2022/06/23 06:47:28;;;;;;;3.28;1.90;;;23.70;99.90;;;;;;4986889;28;20069;-72
2022/06/23 06:49:57;;;;;;;4.80;2.33;;;23.70;99.90;;;;;;4986011;28;20110;-73
2022/06/23 06:52:24;;;;;;;7.30;2.50;;;23.80;99.90;;;;;;4984791;28;20379;-71
2022/06/23 06:54:56;;;;;;;7.30;2.33;;;23.90;99.90;;;;;;4972298;28;20026;-73
2022/06/23 06:57:46;;;;;;;5.83;2.63;;;23.90;99.90;;;;;;4988334;28;20027;-73
2022/06/23 07:00:19;;;;;;;4.97;1.92;;;24.10;99.90;;;;;;4989137;28;20365;-74
2022/06/23 07:02:52;;;;;;;3.60;2.13;;;24.10;99.90;;;;;;4991075;28;20034;-73
2022/06/23 07:05:36;;;;;;;4.03;1.60;;;24.10;99.90;;;;;;4982961;28;20081;-72
2022/06/23 07:08:07;;;;;;;;;;;24.20;99.90;;;;;;4970362;28;20399;-72
2022/06/23 07:10:39;;;;;;;5.03;2.45;;;24.20;99.90;;;;;;4982126;28;19924;-72
2022/06/23 07:13:13;;;;;;;4.65;2.17;;;24.10;99.90;;;;;;4980047;28;20902;-72
2022/06/23 07:15:46;;;;;;;5.25;2.22;;;24.00;99.90;;;;;;4982132;28;20120;-75
2022/06/23 07:18:12;;;;;;;5.70;2.20;;;23.90;99.90;;;;;;4970130;28;20030;-74
2022/06/23 07:20:42;;;;;;;7.90;2.63;;;23.60;99.90;;;;;;4981008;28;20033;-72
2022/06/23 07:23:28;;;;;;;5.72;2.22;;;23.50;99.90;;;;;;4981896;28;20046;-71
2022/06/23 07:26:10;;;;;;;3.47;2.10;;;23.60;99.90;;;;;;4969959;28;20062;-70
2022/06/23 07:28:44;;;;;;;6.95;1.98;;;23.60;99.90;;;;;;4979283;28;20057;-72
2022/06/23 07:31:19;;;;;;;8.38;2.47;;;23.60;99.90;;;;;;4993236;28;20034;-72
2022/06/23 07:33:47;;;;;;;5.55;2.00;;;23.60;99.90;;;;;;4984738;28;20030;-72
2022/06/23 07:36:36;;;;;;;6.07;2.13;;;23.60;99.90;;;;;;4983249;28;20023;-72
2022/06/23 07:39:12;;;;;;;6.97;2.10;;;23.70;99.90;;;;;;4982104;28;20058;-72
2022/06/23 07:41:45;;;;;;;6.72;2.05;;;23.70;99.90;;;;;;4993747;28;20498;-71
2022/06/23 07:44:21;;;;;;;4.30;2.13;;;23.60;99.90;;;;;;4995703;28;20030;-72
2022/06/23 07:46:47;;;;;;;7.93;2.00;;;23.60;99.90;;;;;;4983574;28;20023;-73
2022/06/23 07:49:13;;;;;;;11.88;2.00;;;23.60;99.90;;;;;;4987419;28;21543;-71
2022/06/23 07:51:41;;;;;;;4.18;1.48;;;23.60;99.90;;;;;;4987110;28;20030;-74
2022/06/23 07:54:10;;;;;;;7.88;2.03;;;23.70;99.90;;;;;;4986376;28;20498;-72
2022/06/23 07:56:39;;;;;;;5.13;1.92;;;23.70;99.90;;;;;;4990514;28;20114;-72
2022/06/23 07:59:17;;;;;;;5.57;2.35;;;23.70;99.90;;;;;;4968701;28;20774;-72
2022/06/23 08:01:55;;;;;;;8.32;2.88;;;23.80;99.90;;;;;;4968751;28;20034;-72
2022/06/23 08:04:43;;;;;;;9.13;2.35;;;24.00;99.90;;;;;;4981948;28;20491;-72
2022/06/23 08:07:11;;;;;;;10.10;2.13;;;24.00;99.90;;;;;;4998841;28;20232;-72
2022/06/23 08:09:43;;;;;;;3.67;1.85;;;24.10;99.90;;;;;;4988371;28;20494;-72
2022/06/23 08:17:54;;;;;;;4.90;2.35;;;24.30;99.90;;;;;;4986919;28;20080;-74
2022/06/23 08:20:23;;;;;;;7.97;2.70;;;24.30;99.90;;;;;;4988927;28;20026;-72
2022/06/23 08:22:52;;;;;;;6.32;2.33;;;24.40;99.90;;;;;;4977118;28;20415;-71
2022/06/23 08:25:18;;;;;;;8.63;2.00;;;24.50;99.90;;;;;;4987243;28;20038;-71
2022/06/23 08:27:45;;;;;;;11.15;2.50;;;24.40;99.90;;;;;;4996546;28;20034;-71
2022/06/23 08:30:17;;;;;;;6.00;2.05;;;24.40;99.90;;;;;;4989289;28;20062;-71
2022/06/23 08:32:48;;;;;;;6.55;2.13;;;24.40;99.90;;;;;;4966747;28;20065;-72
2022/06/23 08:35:49;;;;;;;8.63;2.35;;;24.60;99.90;;;;;;4965813;28;20037;-71
2022/06/23 08:38:31;;;;;;;4.63;2.00;;;24.60;99.90;;;;;;4985169;28;26163;-71
2022/06/23 08:41:22;;;;;;;8.43;2.72;;;24.70;99.90;;;;;;4987066;28;20045;-71
2022/06/23 08:43:53;;;;;;;24.52;7.60;;;24.90;99.90;;;;;;4988680;28;20109;-71
2022/06/23 08:46:33;;;;;;;5.75;1.55;;;25.00;99.10;;;;;;4989945;28;20034;-72
2022/06/23 08:49:04;;;;;;;6.72;2.20;;;25.10;97.90;;;;;;4987771;28;20025;-71
2022/06/23 08:51:39;;;;;;;8.80;2.17;;;25.20;97.70;;;;;;4986050;28;20022;-72
2022/06/23 08:54:44;;;;;;;8.73;2.15;;;25.30;98.00;;;;;;4985127;28;20081;-71
2022/06/23 08:57:31;;;;;;;6.97;2.28;;;25.40;97.90;;;;;;4982811;28;20050;-72
2022/06/23 09:00:02;;;;;;;10.00;2.28;;;25.40;97.30;;;;;;4970403;28;20035;-72
2022/06/23 09:02:36;;;;;;;8.50;2.35;;;25.60;97.30;;;;;;4989708;28;20053;-72
2022/06/23 09:05:26;;;;;;;6.05;1.70;;;25.60;96.50;;;;;;4993054;28;20352;-72
2022/06/23 09:08:14;;;;;;;10.25;2.00;;;25.70;95.80;;;;;;4986550;28;20883;-72
2022/06/23 09:10:47;;;;;;;6.68;2.40;;;25.60;95.60;;;;;;4970939;28;20479;-71
2022/06/23 09:13:37;;;;;;;6.45;2.28;;;25.70;95.50;;;;;;4984000;28;20093;-71
2022/06/23 09:16:05;;;;;;;9.30;2.58;;;25.60;95.40;;;;;;4984108;28;20030;-72
2022/06/23 09:18:43;;;;;;;5.93;2.42;;;25.70;95.40;;;;;;4987724;28;20034;-73
2022/06/23 09:21:30;;;;;;;7.45;2.13;;;25.80;95.40;;;;;;4989940;28;20037;-71
2022/06/23 09:24:20;;;;;;;5.43;1.50;;;25.80;95.10;;;;;;4987030;28;20407;-72
2022/06/23 09:26:46;;;;;;;7.32;1.65;;;25.90;95.00;;;;;;4985506;28;20032;-72
2022/06/23 09:29:24;;;;;;;10.70;2.08;;;26.00;94.60;;;;;;4991520;28;20030;-72
2022/06/23 09:32:00;;;;;;;9.25;1.60;;;25.90;94.30;;;;;;4984879;28;20109;-71
2022/06/23 09:34:44;;;;;;;5.20;1.70;;;25.90;94.00;;;;;;4993342;28;20360;-72
2022/06/23 09:37:41;;;;;;;7.75;2.22;;;25.90;94.10;;;;;;4988177;28;20022;-73
2022/06/23 09:40:27;;;;;;;5.40;1.85;;;25.90;93.60;;;;;;4983349;28;20113;-72
2022/06/23 09:42:52;;;;;;;8.48;1.95;;;26.00;93.20;;;;;;4983759;28;20026;-73
2022/06/23 09:45:52;;;;;;;6.60;2.28;;;26.10;93.00;;;;;;4983334;28;20045;-73
2022/06/23 09:48:24;;;;;;;13.45;2.50;;;26.10;93.10;;;;;;4906058;28;20050;-77
2022/06/23 09:51:28;;;;;;;7.35;1.63;;;26.20;91.90;;;;;;4992318;28;20018;-72
2022/06/23 09:54:15;;;;;;;7.03;2.28;;;26.20;91.20;;;;;;4983847;28;20534;-71
2022/06/23 09:57:05;;;;;;;9.32;2.35;;;26.20;92.00;;;;;;4988015;28;20505;-72
2022/06/23 09:59:46;;;;;;;7.40;2.08;;;26.20;91.60;;;;;;4942361;28;20943;-72
2022/06/23 10:02:36;;;;;;;6.75;1.95;;;26.20;91.60;;;;;;4989368;28;20038;-72
2022/06/23 10:05:32;;;;;;;5.38;2.20;;;26.20;91.80;;;;;;4982670;28;20117;-72
2022/06/23 10:08:13;;;;;;;9.85;2.55;;;26.40;91.40;;;;;;4990179;28;20031;-72
2022/06/23 10:11:07;;;;;;;8.38;2.05;;;26.40;91.30;;;;;;4979923;28;20034;-73
2022/06/23 10:13:45;;;;;;;8.45;2.08;;;26.40;91.20;;;;;;4985000;28;20041;-71
2022/06/23 10:16:49;;;;;;;4.95;2.03;;;26.60;91.00;;;;;;4991990;28;20042;-73
2022/06/23 10:19:23;;;;;;;6.90;2.60;;;26.70;90.80;;;;;;4932541;28;20070;-71
2022/06/23 10:21:58;;;;;;;8.32;2.40;;;26.70;90.30;;;;;;4967692;28;20280;-71
2022/06/23 10:24:28;;;;;;;10.00;2.38;;;26.60;90.10;;;;;;4986124;28;20034;-72
2022/06/23 10:27:20;;;;;;;9.77;2.58;;;26.60;90.20;;;;;;4989233;28;21432;-72
2022/06/23 10:29:57;;;;;;;8.05;2.22;;;26.50;90.00;;;;;;4979829;28;20121;-72
2022/06/23 10:32:40;;;;;;;9.23;1.90;;;26.50;90.30;;;;;;5021174;23;20073;-75
2022/06/23 10:35:24;;;;;;;6.90;2.53;;;26.60;90.40;;;;;;5006773;28;20038;-77
2022/06/23 10:38:34;;;;;;;7.80;2.30;;;26.70;90.60;;;;;;5001673;28;20080;-77
2022/06/23 10:41:12;;;;;;;8.45;2.13;;;26.70;90.30;;;;;;4983009;28;20042;-75
2022/06/23 10:43:38;;;;;;;6.03;2.05;;;26.70;90.40;;;;;;5001335;28;20557;-75
2022/06/23 10:46:24;;;;;;;8.23;2.25;;;26.70;90.10;;;;;;5005607;28;20125;-75
2022/06/23 10:49:08;;;;;;;6.63;2.63;;;26.80;90.10;;;;;;5008108;28;20030;-76
2022/06/23 10:51:43;;;;;;;9.10;2.42;;;26.80;90.20;;;;;;5007903;28;20026;-76
2022/06/23 10:54:12;;;;;;;11.00;2.53;;;26.80;90.30;;;;;;5007080;28;20387;-76
2022/06/23 10:57:19;;;;;;;8.68;2.50;;;26.90;89.70;;;;;;5021035;28;20483;-74
2022/06/23 10:59:45;;;;;;;11.57;2.28;;;27.00;88.00;;;;;;4987735;28;20034;-76
2022/06/23 11:02:29;;;;;;;9.27;2.10;;;27.10;88.30;;;;;;4996617;28;20080;-77
2022/06/23 11:05:27;;;;;;;11.15;2.45;;;27.00;87.90;;;;;;5007515;28;20144;-76
2022/06/23 11:08:01;;;;;;;7.97;2.08;;;27.00;87.30;;;;;;4976908;28;20503;-75
2022/06/23 11:10:30;;;;;;;7.03;1.65;;;27.00;87.10;;;;;;5009223;28;20026;-76
2022/06/23 11:13:17;;;;;;;8.18;2.13;;;27.00;87.10;;;;;;5009808;28;20026;-76
2022/06/23 11:16:00;;;;;;;7.38;1.60;;;27.10;86.70;;;;;;5033105;28;20065;-75
2022/06/23 11:18:47;;;;;;;8.15;2.33;;;27.10;85.90;;;;;;5006795;28;20025;-75
2022/06/23 11:22:00;;;;;;;8.05;2.30;;;27.00;84.10;;;;;;5009093;28;20155;-75
2022/06/23 11:24:31;;;;;;;7.03;1.80;;;27.00;84.60;;;;;;4972543;28;20041;-76
2022/06/23 11:27:09;;;;;;;10.32;2.08;;;27.00;84.90;;;;;;5023347;28;20052;-76
2022/06/23 11:29:53;;;;;;;10.73;2.17;;;27.10;84.40;;;;;;5005383;28;20482;-76
2022/06/23 11:32:26;;;;;;;5.53;2.15;;;27.20;84.80;;;;;;5009929;28;20040;-75
2022/06/23 11:35:01;;;;;;;;;;;27.40;84.30;;;;;;5011401;28;20034;-75
2022/06/23 11:37:38;;;;;;;8.77;2.20;;;27.40;83.90;;;;;;5009360;28;20272;-76
2022/06/23 11:40:22;;;;;;;8.20;2.67;;;27.40;83.00;;;;;;5010524;28;20038;-75
2022/06/23 11:43:16;;;;;;;11.30;2.17;;;27.50;83.10;;;;;;5010477;28;20398;-75
2022/06/23 11:45:53;;;;;;;7.93;1.90;;;27.40;82.40;;;;;;5012517;28;20030;-76
2022/06/23 11:48:56;;;;;;;6.18;2.10;;;27.40;82.50;;;;;;5012656;28;20633;-75
2022/06/23 11:51:47;;;;;;;9.25;2.22;;;27.30;82.80;;;;;;5008917;28;20018;-75
2022/06/23 11:54:36;;;;;;;10.95;1.90;;;27.20;82.30;;;;;;5013425;28;20030;-74
2022/06/23 11:57:05;;;;;;;10.63;3.15;;;27.20;81.10;;;;;;5005821;28;20390;-74
2022/06/23 11:59:40;;;;;;;7.10;2.22;;;27.10;81.20;;;;;;5008822;28;20026;-76
2022/06/23 12:02:06;;;;;;;7.07;1.77;;;27.20;80.80;;;;;;5003928;28;20502;-76
2022/06/23 12:05:18;;;;;;;8.13;2.72;;;27.30;80.60;;;;;;5009015;28;20026;-68
2022/06/23 12:07:52;;;;;;;13.25;2.20;;;27.30;82.50;;;;;;4983973;28;20043;-67
2022/06/23 12:10:25;;;;;;;6.35;1.95;;;27.50;81.40;;;;;;5010113;28;20121;-70
2022/06/23 12:12:56;;;;;;;6.55;2.03;;;27.60;82.10;;;;;;5009028;28;20109;-69
2022/06/23 12:15:25;;;;;;;6.68;2.78;;;27.70;81.20;;;;;;5006245;28;20049;-69
2022/06/23 12:18:09;;;;;;;8.52;2.53;;;27.80;82.00;;;;;;5003814;28;20379;-69
2022/06/23 12:21:04;;;;;;;7.25;2.00;;;27.80;84.20;;;;;;5004825;28;20053;-69
2022/06/23 12:23:41;;;;;;;6.95;2.10;;;27.90;87.10;;;;;;5009078;28;20022;-71
2022/06/23 12:26:24;;;;;;;8.77;2.15;;;28.00;82.30;;;;;;5007840;28;20494;-70
2022/06/23 12:28:50;;;;;;;11.57;3.40;;;28.10;83.80;;;;;;5008992;28;20022;-70
2022/06/23 12:31:52;;;;;;;6.05;1.90;;;28.20;84.60;;;;;;5007208;28;20041;-71
2022/06/23 12:34:42;;;;;;;13.02;2.55;;;28.20;81.30;;;;;;5006478;28;20034;-70
2022/06/23 12:37:39;;;;;;;7.85;2.08;;;28.40;83.00;;;;;;5005531;28;20029;-71
2022/06/23 12:40:24;;;;;;;5.22;1.98;;;28.50;78.10;;;;;;5008247;28;20038;-70
2022/06/23 12:43:08;;;;;;;6.13;1.95;;;28.60;79.10;;;;;;5008254;28;20103;-68
2022/06/23 12:46:03;;;;;;;7.85;2.42;;;28.50;78.20;;;;;;5005411;28;20034;-69
2022/06/23 12:48:45;;;;;;;8.35;1.92;;;28.50;80.80;;;;;;5016382;28;20040;-68
2022/06/23 12:51:39;;;;;;;9.45;2.40;;;28.40;82.30;;;;;;5006690;28;20505;-67
2022/06/23 12:54:24;;;;;;;6.03;2.17;;;28.30;79.60;;;;;;4998035;28;20109;-68
2022/06/23 12:57:06;;;;;;;6.93;2.10;;;28.30;77.20;;;;;;5003827;28;20108;-68
2022/06/23 12:59:50;;;;;;;6.35;2.08;;;28.30;81.00;;;;;;5010337;28;20049;-68
2022/06/23 13:02:45;;;;;;;8.30;2.35;;;28.20;79.70;;;;;;5006491;28;20501;-68
2022/06/23 13:05:22;;;;;;;9.75;2.05;;;28.30;76.10;;;;;;5007936;28;20085;-69
2022/06/23 13:07:57;;;;;;;7.32;2.45;;;28.30;79.40;;;;;;5006776;28;20502;-68
2022/06/23 13:33:46;;;;;;;6.68;2.00;;;29.30;77.10;;;;;;5075993;27;20937;-73
2022/06/23 13:36:21;;;;;;;6.97;1.90;;;29.30;75.20;;;;;;5073328;28;20040;-68
2022/06/23 13:39:10;;;;;;;9.90;2.22;;;29.30;75.90;;;;;;5071907;28;20037;-66
2022/06/23 13:41:39;;;;;;;9.35;2.50;;;29.30;74.30;;;;;;5060304;28;20032;-66
2022/06/23 13:44:11;;;;;;;7.05;2.40;;;29.20;71.80;;;;;;5061512;28;20079;-66
2022/06/23 13:46:46;;;;;;;8.88;2.13;;;29.20;72.00;;;;;;5053463;28;20013;-66
2022/06/23 13:49:29;;;;;;;8.65;2.33;;;29.10;71.60;;;;;;5074166;28;20116;-66
2022/06/23 13:52:00;;;;;;;6.30;2.50;;;29.00;72.40;;;;;;5058957;28;20029;-66
2022/06/23 13:54:38;;;;;;;5.93;2.30;;;28.90;73.00;;;;;;5063616;28;20631;-66
2022/06/23 13:57:29;;;;;;;6.65;2.40;;;28.90;72.90;;;;;;5065237;28;20025;-66
2022/06/23 14:00:20;;;;;;;6.82;2.72;;;28.90;72.50;;;;;;5050835;28;20029;-65
2022/06/23 14:03:14;;;;;;;5.35;2.53;;;28.90;73.70;;;;;;5048066;28;20478;-67
2022/06/23 14:05:53;;;;;;;9.93;2.05;;;28.90;77.00;;;;;;5064236;28;20037;-68
2022/06/23 14:08:30;;;;;;;5.00;1.95;;;28.90;76.90;;;;;;5057219;28;20041;-68
2022/06/23 14:11:04;;;;;;;6.65;2.25;;;29.00;74.20;;;;;;5062973;28;20083;-68
2022/06/23 14:13:58;;;;;;;8.70;2.17;;;29.10;73.00;;;;;;5060132;28;20025;-68
2022/06/23 14:16:55;;;;;;;7.10;2.58;;;29.10;74.30;;;;;;5040313;28;20037;-68
2022/06/23 14:19:47;;;;;;;7.50;2.40;;;29.20;74.60;;;;;;5050823;28;20045;-70
2022/06/23 14:22:40;;;;;;;5.93;2.08;;;29.30;75.30;;;;;;5050671;28;20037;-70
2022/06/23 14:25:21;;;;;;;5.47;2.57;;;29.30;75.50;;;;;;5054073;28;20140;-69